createdAt,value
2022-09-18T00:00:00.319Z,1.1
2022-09-18T00:05:00.288Z,1.1
2022-09-18T00:10:00.285Z,1.1
2022-09-18T00:15:00.375Z,1.1
2022-09-18T00:20:00.277Z,1.1
2022-09-18T00:25:00.286Z,1.1
2022-09-18T00:30:00.286Z,1.1
2022-09-18T00:35:00.295Z,1.1
2022-09-18T00:40:00.351Z,1.1
2022-09-18T00:45:00.302Z,1.1
2022-09-18T00:50:00.359Z,1.1
2022-09-18T00:55:00.319Z,1.1
2022-09-18T01:00:00.304Z,1.1
2022-09-18T01:05:00.312Z,1.1
2022-09-18T01:10:00.320Z,1.1
2022-09-18T01:15:00.320Z,1.1
2022-09-18T01:20:00.315Z,1.1
2022-09-18T01:25:00.337Z,1.1
2022-09-18T01:30:00.335Z,1.1
2022-09-18T01:35:00.345Z,1.1
2022-09-18T01:40:00.506Z,1.1
2022-09-18T01:45:00.350Z,1.1
2022-09-18T01:50:00.484Z,1.1
2022-09-18T01:55:00.363Z,1.1
2022-09-18T02:00:00.365Z,1.1
2022-09-18T02:05:00.954Z,1.1
2022-09-18T02:10:00.949Z,1.1
2022-09-18T02:15:00.960Z,1.1
2022-09-18T02:20:00.988Z,1.1
2022-09-18T02:25:00.957Z,1.1
2022-09-18T02:30:00.972Z,1.1
2022-09-18T02:35:00.996Z,1.1
2022-09-18T02:40:01.051Z,1.1
2022-09-18T02:45:00.999Z,1.1
2022-09-18T02:50:01.027Z,1.1
2022-09-18T02:55:00.985Z,1.1
2022-09-18T03:00:01.031Z,1.1
2022-09-18T03:05:01.000Z,1.1
2022-09-18T03:10:01.017Z,1.1
2022-09-18T03:15:01.030Z,1.1
2022-09-18T03:20:01.025Z,1.1
2022-09-18T03:25:01.025Z,1.1
2022-09-18T03:30:01.051Z,1.1
2022-09-18T03:35:01.036Z,1.1
2022-09-18T03:40:01.090Z,1.1
2022-09-18T03:45:01.043Z,1.1
2022-09-18T03:50:01.045Z,1.1
2022-09-18T03:55:00.154Z,1.1
2022-09-18T04:00:00.202Z,1.1
2022-09-18T04:05:00.191Z,1.1
2022-09-18T04:10:00.233Z,1.1
2022-09-18T04:15:00.202Z,1.1
2022-09-18T04:20:00.205Z,1.1
2022-09-18T04:25:00.211Z,1.1
2022-09-18T04:30:00.207Z,1.1
2022-09-18T04:35:00.233Z,1.1
2022-09-18T04:40:00.316Z,1.1
2022-09-18T04:45:00.302Z,2.3
2022-09-18T04:50:00.238Z,5.3
2022-09-18T04:55:00.264Z,13.4
2022-09-18T05:00:00.327Z,27.5
2022-09-18T05:05:00.265Z,43.3
2022-09-18T05:10:00.281Z,62.7
2022-09-18T05:15:00.288Z,72.3
2022-09-18T05:20:00.285Z,116.7
2022-09-18T05:25:00.293Z,96.4
2022-09-18T05:30:00.299Z,151.8
2022-09-18T05:35:00.307Z,202.3
2022-09-18T05:40:00.386Z,311.1
2022-09-18T05:45:01.988Z,359.1
2022-09-18T05:50:00.316Z,399.9
2022-09-18T05:55:00.313Z,429.7
2022-09-18T06:00:00.651Z,484.3
2022-09-18T06:05:00.322Z,520.3
2022-09-18T06:10:00.305Z,586.4
2022-09-18T06:15:00.492Z,839.5
2022-09-18T06:20:00.424Z,870.2
2022-09-18T06:25:00.460Z,637.6
2022-09-18T06:30:00.469Z,772.1
2022-09-18T06:35:00.999Z,1028.7
2022-09-18T06:40:00.610Z,1145.6
2022-09-18T06:45:00.386Z,980.7
2022-09-18T06:50:00.355Z,839.5
2022-09-18T06:55:00.849Z,849.6
2022-09-18T07:00:00.372Z,957.5
2022-09-18T07:05:00.380Z,946.1
2022-09-18T07:10:00.399Z,980.7
2022-09-18T07:15:00.426Z,1028.7
2022-09-18T07:20:00.400Z,912.8
2022-09-18T07:25:00.394Z,849.6
2022-09-18T07:30:00.384Z,969
2022-09-18T07:35:00.420Z,1028.7
2022-09-18T07:40:00.605Z,1437.9
2022-09-18T07:45:00.401Z,1275.8
2022-09-18T07:50:00.437Z,1915.9
2022-09-18T07:55:00.412Z,1848.4
2022-09-18T08:00:00.420Z,3321.1
2022-09-18T08:05:00.457Z,3833.5
2022-09-18T08:10:00.443Z,2058.4
2022-09-18T08:15:00.450Z,3054.3
2022-09-18T08:20:00.483Z,2462.8
2022-09-18T08:25:00.445Z,1260.7
2022-09-18T08:30:00.484Z,1387.2
2022-09-18T08:35:00.545Z,1893.1
2022-09-18T08:40:01.005Z,1870.6
2022-09-18T08:45:01.052Z,1962.2
2022-09-18T08:50:00.582Z,1387.2
2022-09-18T08:55:00.477Z,1544.8
2022-09-18T09:00:00.482Z,1962.2
2022-09-18T09:05:00.480Z,2133.6
2022-09-18T09:10:00.505Z,2347.8
2022-09-18T09:15:00.502Z,2492.4
2022-09-18T09:20:00.496Z,3568
2022-09-18T09:25:00.502Z,4218.4
2022-09-18T09:30:00.515Z,4069.8
2022-09-18T09:35:00.542Z,4021.3
2022-09-18T09:40:00.629Z,3833.5
2022-09-18T09:45:00.544Z,4069.8
2022-09-18T09:50:00.475Z,3879.6
2022-09-18T09:55:00.300Z,3742.9
2022-09-18T10:00:00.200Z,3281.6
2022-09-18T10:05:00.125Z,4021.3
2022-09-18T10:10:00.135Z,3833.5
2022-09-18T10:15:00.126Z,2742.6
2022-09-18T10:20:00.158Z,2462.8
2022-09-18T10:25:00.148Z,3654.5
2022-09-18T10:30:00.189Z,4754.3
2022-09-18T10:35:00.183Z,4269.1
2022-09-18T10:40:00.417Z,5620.7
2022-09-18T10:45:02.004Z,4425
2022-09-18T10:50:00.181Z,5107.8
2022-09-18T10:55:00.159Z,4754.3
2022-09-18T11:00:00.178Z,4586.8
2022-09-18T11:05:00.191Z,4697.8
2022-09-18T11:10:00.184Z,4021.3
2022-09-18T11:15:00.201Z,4927.9
2022-09-18T11:20:00.198Z,4425
2022-09-18T11:25:00.217Z,4118.8
2022-09-18T11:30:00.215Z,3654.5
2022-09-18T11:35:00.215Z,3054.3
2022-09-18T11:40:00.843Z,4021.3
2022-09-18T11:45:00.654Z,3525.6
2022-09-18T11:50:00.765Z,2710.1
2022-09-18T11:55:00.453Z,3165.8
2022-09-18T12:00:00.314Z,2809
2022-09-18T12:05:00.248Z,1659.7
2022-09-18T12:09:58.889Z,1699.9
2022-09-18T12:14:58.908Z,1870.6
2022-09-18T12:19:58.903Z,5358.2
2022-09-18T12:24:58.895Z,5756.7
2022-09-18T12:29:58.920Z,3483.7
2022-09-18T12:34:58.910Z,6725.2
2022-09-18T12:39:59.634Z,6725.2
2022-09-18T12:44:59.575Z,4478.2
2022-09-18T12:49:59.571Z,4642
2022-09-18T12:54:59.575Z,4478.2
2022-09-18T12:59:59.585Z,4218.4
2022-09-18T13:04:59.582Z,4532.1
2022-09-18T13:09:59.591Z,5294.6
2022-09-18T13:14:59.642Z,4021.3
2022-09-18T13:20:00.313Z,6334.7
2022-09-18T13:25:00.313Z,4754.3
2022-09-18T13:30:00.340Z,2710.1
2022-09-18T13:35:00.318Z,4869.3
2022-09-18T13:40:11.852Z,3833.5
2022-09-18T13:45:00.500Z,2211.5
2022-09-18T13:50:00.765Z,3833.5
2022-09-18T13:55:00.518Z,3091.1
2022-09-18T14:00:00.421Z,4218.4
2022-09-18T14:05:00.478Z,3833.5
2022-09-18T14:10:03.861Z,3165.8
2022-09-18T14:15:00.395Z,2982.2
2022-09-18T14:20:00.412Z,4320.5
2022-09-18T14:25:00.352Z,4697.8
2022-09-18T14:30:01.011Z,4642
2022-09-18T14:35:00.566Z,4811.5
2022-09-18T14:40:01.035Z,3321.1
2022-09-18T14:45:00.498Z,3165.8
2022-09-18T14:50:00.601Z,2009.8
2022-09-18T14:55:00.635Z,2552.8
2022-09-18T15:00:00.641Z,2238.1
2022-09-18T15:05:00.411Z,1826.4
2022-09-18T15:10:00.401Z,1187.5
2022-09-18T15:15:00.415Z,1387.2
2022-09-18T15:20:00.462Z,1370.7
2022-09-18T15:25:00.667Z,1403.9
2022-09-18T15:30:00.441Z,1659.7
2022-09-18T15:35:00.527Z,1620.5
2022-09-18T15:40:00.616Z,1544.8
2022-09-18T15:45:00.484Z,1066.3
2022-09-18T15:50:00.443Z,1370.7
2022-09-18T15:55:00.262Z,1437.9
2022-09-18T16:00:00.222Z,901.9
2022-09-18T16:05:00.169Z,701.6
2022-09-18T16:10:00.188Z,545.8
2022-09-18T16:15:00.196Z,445.4
2022-09-18T16:20:00.205Z,395.2
2022-09-18T16:25:00.205Z,350.6
2022-09-18T16:30:00.223Z,286.1
2022-09-18T16:35:00.211Z,250.9
2022-09-18T16:40:00.307Z,244.9
2022-09-18T16:45:00.235Z,230.7
2022-09-18T16:50:00.259Z,195.2
2022-09-18T16:55:00.200Z,153.6
2022-09-18T17:00:00.233Z,102.3
2022-09-18T17:05:00.207Z,75
2022-09-18T17:10:00.237Z,72.3
2022-09-18T17:15:00.255Z,47
2022-09-18T17:20:00.258Z,45.4
2022-09-18T17:25:00.258Z,40.7
2022-09-18T17:30:00.276Z,29.5
2022-09-18T17:35:00.281Z,21.4
2022-09-18T17:40:00.467Z,9.2
2022-09-18T17:45:00.281Z,3.4
2022-09-18T17:50:00.292Z,1.4
2022-09-18T17:55:00.283Z,1.1
2022-09-18T18:00:00.330Z,1.1
2022-09-18T18:05:00.308Z,1.1
2022-09-18T18:10:00.327Z,1.1
2022-09-18T18:15:00.443Z,1.1
2022-09-18T18:20:00.317Z,1.1
2022-09-18T18:25:00.321Z,1.1
2022-09-18T18:30:00.338Z,1.1
2022-09-18T18:35:00.331Z,1.1
2022-09-18T18:40:00.415Z,1.1
2022-09-18T18:45:00.380Z,1.1
2022-09-18T18:50:00.355Z,1.1
2022-09-18T18:55:00.380Z,1.1
2022-09-18T19:00:00.376Z,1.1
2022-09-18T19:05:00.381Z,1.1
2022-09-18T19:10:00.416Z,1.1
2022-09-18T19:15:00.509Z,1.1
2022-09-18T19:20:00.397Z,1.1
2022-09-18T19:25:00.414Z,1.1
2022-09-18T19:30:00.400Z,1.1
2022-09-18T19:35:00.423Z,1.1
2022-09-18T19:40:00.475Z,1.1
2022-09-18T19:45:00.424Z,1.1
2022-09-18T19:50:00.423Z,1.1
2022-09-18T19:55:00.478Z,1.1
2022-09-18T20:00:00.524Z,1.1
2022-09-18T20:05:00.920Z,1.1
2022-09-18T20:10:00.737Z,1.1
2022-09-18T20:15:00.478Z,1.1
2022-09-18T20:20:00.530Z,1.1
2022-09-18T20:25:00.448Z,1.1
2022-09-18T20:30:00.459Z,1.1
2022-09-18T20:35:02.968Z,1.1
2022-09-18T20:40:00.556Z,1.1
2022-09-18T20:45:00.483Z,1.1
2022-09-18T20:50:00.496Z,1.1
2022-09-18T20:55:00.480Z,1.1
2022-09-18T21:00:00.501Z,1.1
2022-09-18T21:05:00.505Z,1.1
2022-09-18T21:10:00.484Z,1.1
2022-09-18T21:15:00.519Z,1.1
2022-09-18T21:20:00.508Z,1.1
2022-09-18T21:25:00.637Z,1.1
2022-09-18T21:30:00.525Z,1.1
2022-09-18T21:35:00.519Z,1.1
2022-09-18T21:40:01.053Z,1.1
2022-09-18T21:45:00.646Z,1.1
2022-09-18T21:50:00.544Z,1.1
2022-09-18T21:55:00.422Z,1.1
2022-09-18T22:00:00.232Z,1.1
2022-09-18T22:05:00.126Z,1.1
2022-09-18T22:10:00.762Z,1.1
2022-09-18T22:15:00.170Z,1.1
2022-09-18T22:20:00.160Z,1.1
2022-09-18T22:25:00.142Z,1.1
2022-09-18T22:30:00.240Z,1.1
2022-09-18T22:35:00.372Z,1.1
2022-09-18T22:40:00.313Z,1.1
2022-09-18T22:45:00.167Z,1.1
2022-09-18T22:50:00.267Z,1.1
2022-09-18T22:55:00.751Z,1.1
2022-09-18T23:00:00.554Z,1.1
2022-09-18T23:05:00.300Z,1.1
2022-09-18T23:10:00.412Z,1.1
2022-09-18T23:15:00.840Z,1.1
2022-09-18T23:20:00.349Z,1.1
2022-09-18T23:25:00.172Z,1.1
2022-09-18T23:30:00.504Z,1.1
2022-09-18T23:35:00.218Z,1.1
2022-09-18T23:40:00.313Z,1.1
2022-09-18T23:45:00.370Z,1.1
2022-09-18T23:50:00.214Z,1.1
2022-09-18T23:55:00.227Z,1.1
